createdAt,value
2022-10-06T00:00:15.375Z,6.53
2022-10-06T00:01:18.319Z,5.95
2022-10-06T00:02:19.940Z,6.95
2022-10-06T00:03:23.095Z,6.32
2022-10-06T00:04:24.906Z,6.95
2022-10-06T00:05:26.715Z,5.85
2022-10-06T00:06:28.160Z,6.60
2022-10-06T00:07:29.598Z,5.82
2022-10-06T00:08:32.637Z,6.63
2022-10-06T00:09:34.458Z,6.95
2022-10-06T00:10:35.910Z,5.50
2022-10-06T00:11:37.687Z,5.88
2022-10-06T00:12:46.118Z,5.60
2022-10-06T00:13:47.619Z,6.65
2022-10-06T00:14:49.371Z,6.07
2022-10-06T00:15:51.038Z,6.55
2022-10-06T00:16:52.564Z,6.13
2022-10-06T00:17:55.059Z,6.35
2022-10-06T00:18:57.936Z,8.30
2022-10-06T00:22:02.953Z,8.32
2022-10-06T00:23:04.529Z,7.78
2022-10-06T00:24:06.511Z,7.05
2022-10-06T00:25:10.474Z,7.68
2022-10-06T00:26:16.718Z,8.38
2022-10-06T00:27:18.597Z,8.07
2022-10-06T00:28:20.269Z,7.57
2022-10-06T00:29:22.170Z,6.78
2022-10-06T00:30:26.137Z,6.20
2022-10-06T00:31:27.652Z,7.80
2022-10-06T00:32:29.145Z,6.38
2022-10-06T00:33:30.589Z,5.65
2022-10-06T00:34:32.397Z,6.85
2022-10-06T00:35:35.112Z,7.28
2022-10-06T00:36:37.298Z,7.30
2022-10-06T00:37:38.787Z,5.45
2022-10-06T00:38:40.352Z,6.80
2022-10-06T00:39:42.235Z,6.15
2022-10-06T00:40:49.774Z,6.15
2022-10-06T00:41:51.226Z,8.07
2022-10-06T00:43:01.061Z,7.38
2022-10-06T00:44:02.872Z,6.68
2022-10-06T00:45:06.258Z,5.97
2022-10-06T00:46:09.946Z,8.50
2022-10-06T00:47:11.535Z,6.32
2022-10-06T00:48:22.048Z,8.57
2022-10-06T00:49:36.019Z,7.40
2022-10-06T00:50:38.164Z,5.97
2022-10-06T00:51:47.693Z,7.60
2022-10-06T00:52:50.094Z,5.95
2022-10-06T00:53:51.979Z,6.47
2022-10-06T00:54:53.699Z,5.80
2022-10-06T00:55:55.208Z,5.32
2022-10-06T00:56:57.755Z,5.10
2022-10-06T00:58:00.109Z,7.30
2022-10-06T00:59:01.946Z,5.85
2022-10-06T01:00:08.059Z,5.65
2022-10-06T01:01:11.881Z,6.68
2022-10-06T01:02:16.038Z,7.22
2022-10-06T01:03:21.881Z,6.45
2022-10-06T01:04:24.855Z,6.43
2022-10-06T01:06:29.888Z,7.93
2022-10-06T01:07:32.282Z,5.90
2022-10-06T01:08:34.334Z,6.22
2022-10-06T01:09:36.985Z,5.60
2022-10-06T01:10:38.516Z,7.78
2022-10-06T01:11:40.273Z,4.90
2022-10-06T01:12:41.791Z,4.70
2022-10-06T01:13:45.297Z,9.00
2022-10-06T01:14:47.789Z,6.13
2022-10-06T01:16:03.481Z,5.18
2022-10-06T01:17:11.246Z,6.95
2022-10-06T01:18:16.173Z,6.53
2022-10-06T01:19:36.504Z,8.38
2022-10-06T01:20:39.054Z,5.55
2022-10-06T01:21:46.439Z,7.63
2022-10-06T01:22:51.379Z,5.60
2022-10-06T01:23:53.604Z,5.90
2022-10-06T01:24:55.880Z,5.03
2022-10-06T01:25:59.118Z,5.75
2022-10-06T01:27:01.359Z,5.70
2022-10-06T01:28:04.942Z,5.57
2022-10-06T01:29:06.872Z,5.10
2022-10-06T01:30:11.105Z,4.13
2022-10-06T01:31:13.184Z,5.18
2022-10-06T01:32:14.676Z,5.78
2022-10-06T01:33:16.480Z,5.30
2022-10-06T01:34:18.305Z,5.53
2022-10-06T01:35:20.441Z,5.90
2022-10-06T01:36:21.994Z,5.32
2022-10-06T01:37:23.401Z,4.43
2022-10-06T01:38:24.907Z,6.78
2022-10-06T01:39:26.348Z,5.10
2022-10-06T01:40:29.322Z,6.38
2022-10-06T01:41:33.272Z,5.95
2022-10-06T01:42:35.843Z,5.03
2022-10-06T01:43:37.303Z,7.07
2022-10-06T01:44:39.190Z,6.15
2022-10-06T01:45:40.628Z,5.78
2022-10-06T01:46:42.159Z,5.32
2022-10-06T01:47:43.716Z,7.60
2022-10-06T01:48:45.226Z,5.55
2022-10-06T01:49:47.287Z,5.95
2022-10-06T01:50:48.836Z,5.75
2022-10-06T01:51:50.442Z,7.85
2022-10-06T01:52:51.956Z,5.53
2022-10-06T01:53:53.404Z,6.03
2022-10-06T01:54:55.307Z,5.72
2022-10-06T01:56:00.219Z,6.35
2022-10-06T01:57:01.847Z,5.47
2022-10-06T01:58:03.488Z,7.22
2022-10-06T01:59:05.471Z,5.68
2022-10-06T02:00:08.105Z,6.03
2022-10-06T02:01:10.341Z,6.90
2022-10-06T02:02:11.887Z,8.50
2022-10-06T02:03:13.407Z,5.95
2022-10-06T02:04:15.250Z,6.70
2022-10-06T02:05:16.901Z,5.70
2022-10-06T02:06:18.449Z,6.13
2022-10-06T02:07:19.994Z,7.22
2022-10-06T02:08:21.451Z,5.53
2022-10-06T02:09:23.761Z,5.93
2022-10-06T02:10:25.251Z,5.22
2022-10-06T02:11:27.225Z,8.60
2022-10-06T02:12:31.698Z,7.32
2022-10-06T02:13:33.816Z,5.80
2022-10-06T02:14:35.595Z,6.35
2022-10-06T02:15:37.058Z,4.85
2022-10-06T02:16:39.164Z,5.50
2022-10-06T02:17:40.603Z,5.22
2022-10-06T02:18:42.534Z,6.70
2022-10-06T02:19:44.036Z,5.45
2022-10-06T02:20:45.484Z,7.28
2022-10-06T02:21:46.980Z,5.20
2022-10-06T02:22:48.607Z,6.53
2022-10-06T02:23:50.788Z,6.03
2022-10-06T02:24:52.239Z,5.70
2022-10-06T02:26:05.020Z,6.18
2022-10-06T02:27:06.953Z,6.30
2022-10-06T02:28:08.508Z,6.90
2022-10-06T02:29:10.356Z,5.50
2022-10-06T02:30:14.442Z,5.15
2022-10-06T02:31:17.082Z,6.22
2022-10-06T02:32:18.596Z,6.72
2022-10-06T02:33:20.100Z,5.43
2022-10-06T02:34:21.907Z,5.90
2022-10-06T02:35:23.418Z,6.35
2022-10-06T02:36:24.927Z,6.35
2022-10-06T02:37:26.366Z,6.03
2022-10-06T02:38:28.984Z,5.45
2022-10-06T02:39:31.062Z,7.15
2022-10-06T02:40:32.773Z,6.10
2022-10-06T02:41:34.314Z,5.20
2022-10-06T02:42:37.568Z,5.03
2022-10-06T02:43:39.506Z,7.60
2022-10-06T02:44:41.414Z,6.38
2022-10-06T02:45:43.241Z,6.47
2022-10-06T02:46:44.866Z,5.50
2022-10-06T02:47:46.545Z,5.78
2022-10-06T02:48:48.332Z,7.82
2022-10-06T02:50:02.690Z,5.90
2022-10-06T02:51:09.700Z,6.55
2022-10-06T02:52:11.156Z,5.53
2022-10-06T02:53:13.242Z,5.38
2022-10-06T02:54:15.769Z,4.97
2022-10-06T02:55:17.308Z,5.13
2022-10-06T02:56:24.346Z,5.63
2022-10-06T02:57:26.491Z,5.97
2022-10-06T02:58:32.499Z,4.20
2022-10-06T02:59:34.127Z,5.65
2022-10-06T03:00:35.569Z,4.78
2022-10-06T03:01:37.200Z,5.18
2022-10-06T03:02:38.787Z,4.63
2022-10-06T03:03:41.120Z,5.50
2022-10-06T03:04:42.561Z,6.57
2022-10-06T03:05:43.989Z,4.82
2022-10-06T03:06:45.492Z,6.20
2022-10-06T03:07:46.903Z,4.88
2022-10-06T03:08:52.361Z,4.78
2022-10-06T03:09:53.824Z,5.68
2022-10-06T03:11:06.626Z,6.00
2022-10-06T03:12:08.413Z,4.50
2022-10-06T03:13:09.852Z,5.25
2022-10-06T03:14:11.631Z,4.50
2022-10-06T03:15:13.511Z,5.45
2022-10-06T03:16:26.468Z,4.75
2022-10-06T03:17:28.101Z,4.97
2022-10-06T03:18:31.438Z,5.50
2022-10-06T03:19:33.592Z,5.50
2022-10-06T03:20:35.412Z,6.75
2022-10-06T03:21:40.482Z,7.30
2022-10-06T03:22:41.914Z,6.50
2022-10-06T03:23:44.582Z,5.72
2022-10-06T03:24:46.351Z,6.10
2022-10-06T03:25:56.494Z,5.97
2022-10-06T03:26:58.272Z,6.70
2022-10-06T03:28:00.776Z,5.65
2022-10-06T03:29:02.598Z,5.88
2022-10-06T03:30:04.984Z,5.95
2022-10-06T03:31:07.309Z,6.10
2022-10-06T03:32:08.829Z,4.97
2022-10-06T03:33:10.239Z,6.18
2022-10-06T03:34:13.800Z,6.35
2022-10-06T03:35:15.370Z,5.30
2022-10-06T03:36:19.128Z,5.80
2022-10-06T03:37:20.664Z,5.75
2022-10-06T03:38:22.105Z,6.45
2022-10-06T03:39:23.914Z,5.45
2022-10-06T03:40:25.333Z,5.50
2022-10-06T03:41:37.716Z,6.63
2022-10-06T03:42:39.231Z,6.40
2022-10-06T03:43:43.159Z,6.65
2022-10-06T03:44:44.985Z,8.68
2022-10-06T03:45:56.792Z,6.07
2022-10-06T03:46:58.256Z,5.72
2022-10-06T03:48:00.422Z,5.18
2022-10-06T03:49:02.230Z,6.50
2022-10-06T03:50:04.240Z,5.70
2022-10-06T03:51:08.612Z,5.43
2022-10-06T03:52:10.273Z,5.57
2022-10-06T03:53:11.759Z,6.15
2022-10-06T03:54:13.200Z,5.10
2022-10-06T03:55:14.680Z,5.88
2022-10-06T03:56:28.201Z,5.95
2022-10-06T03:57:29.621Z,6.43
2022-10-06T03:58:33.112Z,6.72
2022-10-06T03:59:35.081Z,6.25
2022-10-06T04:00:36.518Z,5.80
2022-10-06T04:01:40.599Z,6.50
2022-10-06T04:02:42.104Z,7.18
2022-10-06T04:03:44.537Z,5.07
2022-10-06T04:04:46.351Z,6.57
2022-10-06T04:05:58.706Z,5.70
2022-10-06T04:07:00.149Z,6.45
2022-10-06T04:08:01.568Z,6.53
2022-10-06T04:09:05.009Z,5.22
2022-10-06T04:10:07.645Z,6.18
2022-10-06T04:11:21.093Z,7.35
2022-10-06T04:12:22.650Z,4.95
2022-10-06T04:13:24.143Z,5.57
2022-10-06T04:14:25.971Z,6.47
2022-10-06T04:15:27.407Z,6.13
2022-10-06T04:16:32.598Z,4.90
2022-10-06T04:17:34.170Z,6.72
2022-10-06T04:18:35.664Z,6.13
2022-10-06T04:19:37.459Z,5.13
2022-10-06T04:20:39.243Z,4.95
2022-10-06T04:21:43.394Z,5.60
2022-10-06T04:22:45.044Z,6.07
2022-10-06T04:23:46.685Z,5.13
2022-10-06T04:24:48.586Z,5.38
2022-10-06T04:25:55.157Z,5.25
2022-10-06T04:27:17.981Z,5.70
2022-10-06T04:28:19.485Z,5.47
2022-10-06T04:29:21.634Z,5.20
2022-10-06T04:30:23.408Z,6.60
2022-10-06T04:31:27.552Z,5.90
2022-10-06T04:32:29.641Z,5.55
2022-10-06T04:33:34.163Z,5.20
2022-10-06T04:34:35.952Z,6.32
2022-10-06T04:35:37.413Z,5.72
2022-10-06T04:36:41.343Z,6.22
2022-10-06T04:37:43.153Z,6.68
2022-10-06T04:38:44.646Z,6.95
2022-10-06T04:39:46.513Z,6.22
2022-10-06T04:40:48.007Z,6.03
2022-10-06T04:41:49.470Z,5.30
2022-10-06T04:42:50.917Z,5.88
2022-10-06T04:43:53.135Z,7.85
2022-10-06T04:44:54.935Z,5.20
2022-10-06T04:45:58.464Z,8.00
2022-10-06T04:47:01.233Z,5.57
2022-10-06T04:48:02.731Z,6.85
2022-10-06T04:49:04.218Z,5.80
2022-10-06T04:50:06.474Z,5.90
2022-10-06T04:51:16.005Z,6.68
2022-10-06T04:52:17.448Z,5.40
2022-10-06T04:53:18.930Z,6.07
2022-10-06T04:54:20.425Z,6.85
2022-10-06T04:55:21.850Z,6.28
2022-10-06T04:56:26.340Z,6.60
2022-10-06T04:57:27.817Z,6.38
2022-10-06T04:58:33.764Z,5.22
2022-10-06T04:59:54.019Z,6.95
2022-10-06T05:00:55.563Z,7.93
2022-10-06T05:01:58.152Z,6.40
2022-10-06T05:02:59.593Z,5.78
2022-10-06T05:04:02.841Z,5.65
2022-10-06T05:05:06.159Z,5.75
2022-10-06T05:06:11.472Z,6.65
2022-10-06T05:07:12.907Z,7.72
2022-10-06T05:08:14.517Z,6.03
2022-10-06T05:09:16.099Z,7.50
2022-10-06T05:10:17.905Z,8.55
2022-10-06T05:11:25.686Z,6.65
2022-10-06T05:12:31.064Z,6.03
2022-10-06T05:13:32.966Z,6.70
2022-10-06T05:14:34.757Z,8.35
2022-10-06T05:15:36.232Z,6.60
2022-10-06T05:16:38.323Z,8.07
2022-10-06T05:17:39.968Z,6.95
2022-10-06T05:18:42.076Z,6.93
2022-10-06T05:19:43.827Z,6.80
2022-10-06T05:21:00.242Z,7.15
2022-10-06T05:22:03.728Z,7.43
2022-10-06T05:23:07.345Z,7.13
2022-10-06T05:24:09.038Z,9.48
2022-10-06T05:25:10.848Z,7.45
2022-10-06T05:26:14.272Z,6.85
2022-10-06T05:27:15.709Z,6.15
2022-10-06T05:28:17.179Z,6.05
2022-10-06T05:29:18.647Z,6.53
2022-10-06T05:30:20.132Z,8.82
2022-10-06T05:31:31.631Z,7.68
2022-10-06T05:32:36.061Z,7.15
2022-10-06T05:33:38.196Z,6.82
2022-10-06T05:34:39.958Z,6.88
2022-10-06T05:35:51.328Z,6.90
2022-10-06T05:36:52.838Z,8.40
2022-10-06T05:37:54.577Z,7.85
2022-10-06T05:38:57.425Z,10.07
2022-10-06T05:39:59.183Z,6.10
2022-10-06T05:41:13.938Z,6.90
2022-10-06T05:42:15.394Z,6.60
2022-10-06T05:43:18.147Z,7.38
2022-10-06T05:44:19.577Z,7.32
2022-10-06T05:45:21.468Z,7.57
2022-10-06T05:46:28.015Z,6.78
2022-10-06T05:47:29.440Z,8.10
2022-10-06T05:48:31.673Z,5.82
2022-10-06T05:49:33.851Z,6.68
2022-10-06T05:50:35.284Z,8.20
2022-10-06T05:51:38.843Z,13.00
2022-10-06T05:52:40.493Z,9.95
2022-10-06T05:53:42.236Z,8.23
2022-10-06T05:54:43.990Z,7.65
2022-10-06T05:55:45.451Z,6.75
2022-10-06T05:56:46.931Z,8.80
2022-10-06T05:57:48.368Z,6.50
2022-10-06T05:58:51.988Z,7.72
2022-10-06T05:59:53.740Z,6.30
2022-10-06T06:00:55.171Z,7.72
2022-10-06T06:01:57.070Z,6.75
2022-10-06T06:02:58.617Z,6.20
2022-10-06T06:04:12.200Z,8.00
2022-10-06T06:05:14.079Z,8.50
2022-10-06T06:06:16.859Z,7.85
2022-10-06T06:07:18.335Z,5.90
2022-10-06T06:08:19.842Z,7.30
2022-10-06T06:09:21.927Z,6.10
2022-10-06T06:10:23.674Z,5.65
2022-10-06T06:11:27.627Z,6.28
2022-10-06T06:12:29.072Z,5.40
2022-10-06T06:13:30.527Z,6.53
2022-10-06T06:14:50.911Z,5.80
2022-10-06T06:16:01.765Z,6.00
2022-10-06T06:17:03.304Z,6.65
2022-10-06T06:18:06.116Z,5.80
2022-10-06T06:19:10.998Z,6.10
2022-10-06T06:20:12.973Z,6.38
2022-10-06T06:21:14.623Z,6.78
2022-10-06T06:22:16.085Z,6.15
2022-10-06T06:23:17.522Z,6.47
2022-10-06T06:24:19.031Z,6.07
2022-10-06T06:25:20.561Z,8.30
2022-10-06T06:26:23.589Z,6.30
2022-10-06T06:27:26.173Z,5.20
2022-10-06T06:28:29.770Z,6.70
2022-10-06T06:29:31.412Z,6.40
2022-10-06T06:30:33.808Z,5.88
2022-10-06T06:31:38.035Z,6.40
2022-10-06T06:32:40.171Z,6.10
2022-10-06T06:33:42.128Z,6.55
2022-10-06T06:34:43.912Z,6.60
2022-10-06T06:35:45.338Z,7.20
2022-10-06T06:36:53.591Z,8.10
2022-10-06T06:37:55.259Z,6.80
2022-10-06T06:38:58.130Z,7.80
2022-10-06T06:39:59.922Z,7.18
2022-10-06T06:41:01.350Z,6.40
2022-10-06T06:42:05.099Z,8.25
2022-10-06T06:43:06.604Z,8.18
2022-10-06T06:44:11.169Z,7.72
2022-10-06T06:45:14.029Z,8.52
2022-10-06T06:47:19.881Z,7.65
2022-10-06T06:48:25.180Z,9.25
2022-10-06T06:49:26.713Z,7.75
2022-10-06T06:50:29.121Z,8.27
2022-10-06T06:51:35.540Z,7.97
2022-10-06T06:52:37.398Z,8.15
2022-10-06T06:53:40.232Z,7.85
2022-10-06T06:54:42.049Z,7.60
2022-10-06T06:55:50.885Z,7.28
2022-10-06T06:56:52.439Z,11.23
2022-10-06T06:57:53.947Z,11.07
2022-10-06T06:58:55.386Z,12.18
2022-10-06T06:59:57.810Z,17.48
2022-10-06T07:01:06.489Z,13.60
2022-10-06T07:02:10.034Z,12.80
2022-10-06T07:03:24.106Z,11.13
2022-10-06T07:04:37.276Z,9.75
2022-10-06T07:05:40.311Z,9.43
2022-10-06T07:06:46.481Z,7.43
2022-10-06T07:07:48.110Z,8.25
2022-10-06T07:08:49.749Z,10.05
2022-10-06T07:09:51.283Z,7.70
2022-10-06T07:10:52.974Z,7.32
2022-10-06T07:11:55.182Z,8.63
2022-10-06T07:12:56.618Z,7.00
2022-10-06T07:14:03.543Z,8.07
2022-10-06T07:15:24.263Z,7.45
2022-10-06T07:16:44.297Z,8.30
2022-10-06T07:18:04.170Z,9.38
2022-10-06T07:19:25.341Z,6.68
2022-10-06T07:20:45.199Z,7.88
2022-10-06T07:22:12.057Z,7.05
2022-10-06T07:23:37.479Z,8.40
2022-10-06T07:24:58.004Z,6.63
2022-10-06T07:25:59.437Z,7.25
2022-10-06T07:27:01.966Z,12.40
2022-10-06T07:28:04.025Z,9.60
2022-10-06T07:29:05.525Z,11.68
2022-10-06T07:30:09.635Z,10.52
2022-10-06T07:31:11.138Z,9.25
2022-10-06T07:32:13.306Z,7.65
2022-10-06T07:33:15.806Z,7.53
2022-10-06T07:34:17.286Z,7.25
2022-10-06T07:35:20.392Z,6.53
2022-10-06T07:36:22.476Z,7.35
2022-10-06T07:37:24.153Z,6.15
2022-10-06T07:38:26.004Z,7.30
2022-10-06T07:39:27.490Z,6.22
2022-10-06T07:40:29.243Z,7.60
2022-10-06T07:41:31.606Z,7.47
2022-10-06T07:42:48.261Z,5.10
2022-10-06T07:43:50.579Z,5.65
2022-10-06T07:45:11.247Z,6.55
2022-10-06T07:46:14.444Z,6.28
2022-10-06T07:47:15.963Z,7.22
2022-10-06T07:48:19.884Z,5.72
2022-10-06T07:49:21.912Z,5.13
2022-10-06T07:50:23.974Z,5.30
2022-10-06T07:51:27.261Z,5.97
2022-10-06T07:52:28.926Z,5.07
2022-10-06T07:53:30.371Z,4.78
2022-10-06T07:54:31.881Z,4.35
2022-10-06T07:55:33.782Z,5.82
2022-10-06T07:56:35.234Z,5.80
2022-10-06T07:57:36.787Z,4.75
2022-10-06T07:58:38.835Z,6.43
2022-10-06T07:59:41.583Z,4.55
2022-10-06T08:00:44.324Z,5.05
2022-10-06T08:01:46.035Z,6.43
2022-10-06T08:02:47.656Z,4.97
2022-10-06T08:03:50.566Z,5.55
2022-10-06T08:05:58.926Z,5.22
2022-10-06T08:07:00.478Z,5.18
2022-10-06T08:08:02.076Z,4.88
2022-10-06T08:09:03.921Z,5.28
2022-10-06T08:10:05.828Z,4.63
2022-10-06T08:11:08.549Z,3.83
2022-10-06T08:12:28.451Z,6.25
2022-10-06T08:13:32.229Z,5.57
2022-10-06T08:14:33.689Z,6.43
2022-10-06T08:15:35.677Z,4.15
2022-10-06T08:16:37.258Z,6.00
2022-10-06T08:17:38.827Z,6.40
2022-10-06T08:18:46.334Z,4.80
2022-10-06T08:19:48.786Z,4.40
2022-10-06T08:20:50.346Z,3.65
2022-10-06T08:21:52.142Z,4.28
2022-10-06T08:22:54.525Z,4.13
2022-10-06T08:23:57.712Z,5.22
2022-10-06T08:25:07.319Z,4.18
2022-10-06T08:26:13.776Z,4.65
2022-10-06T08:27:15.226Z,3.90
2022-10-06T08:28:16.824Z,4.03
2022-10-06T08:29:18.425Z,4.50
2022-10-06T08:30:20.313Z,3.67
2022-10-06T08:31:23.092Z,3.72
2022-10-06T08:32:24.644Z,3.08
2022-10-06T08:33:26.986Z,4.05
2022-10-06T08:34:28.625Z,5.30
2022-10-06T08:35:33.376Z,3.20
2022-10-06T08:36:34.944Z,4.05
2022-10-06T08:37:36.605Z,5.43
2022-10-06T08:38:40.630Z,4.90
2022-10-06T08:39:44.712Z,3.28
2022-10-06T08:40:47.098Z,4.70
2022-10-06T08:41:51.937Z,3.00
2022-10-06T08:42:58.655Z,3.95
2022-10-06T08:44:05.474Z,3.75
2022-10-06T08:45:13.781Z,3.60
2022-10-06T08:46:18.713Z,3.97
2022-10-06T08:47:24.439Z,4.10
2022-10-06T08:48:30.102Z,3.88
2022-10-06T08:49:37.252Z,4.03
2022-10-06T08:50:47.934Z,3.63
2022-10-06T08:52:10.088Z,3.10
2022-10-06T08:53:21.697Z,5.32
2022-10-06T08:54:48.377Z,4.32
2022-10-06T08:56:09.171Z,3.30
2022-10-06T08:57:24.966Z,3.42
2022-10-06T08:58:45.222Z,4.25
2022-10-06T08:59:49.609Z,10.35
2022-10-06T09:00:56.824Z,9.77
2022-10-06T09:01:58.560Z,9.93
2022-10-06T09:03:02.183Z,4.90
2022-10-06T09:04:07.730Z,4.60
2022-10-06T09:05:13.663Z,5.05
2022-10-06T09:06:33.071Z,6.38
2022-10-06T09:08:08.963Z,5.15
2022-10-06T09:09:37.729Z,3.78
2022-10-06T09:10:54.062Z,3.13
2022-10-06T09:12:19.785Z,3.75
2022-10-06T09:13:28.662Z,5.22
2022-10-06T09:14:37.903Z,4.70
2022-10-06T09:15:51.064Z,5.35
2022-10-06T09:17:00.840Z,4.85
2022-10-06T09:18:17.991Z,3.35
2022-10-06T09:19:33.486Z,4.30
2022-10-06T09:20:47.394Z,3.30
2022-10-06T09:21:53.336Z,3.97
2022-10-06T09:22:56.660Z,3.60
2022-10-06T09:24:05.043Z,3.80
2022-10-06T09:25:26.831Z,4.55
2022-10-06T09:26:30.496Z,3.45
2022-10-06T09:27:33.924Z,6.07
2022-10-06T09:28:35.808Z,4.85
2022-10-06T09:29:37.697Z,5.88
2022-10-06T09:30:41.782Z,3.72
2022-10-06T09:31:50.882Z,4.13
2022-10-06T09:32:59.096Z,7.13
2022-10-06T09:34:18.894Z,4.55
2022-10-06T09:35:22.804Z,3.42
2022-10-06T09:36:24.312Z,4.65
2022-10-06T09:37:26.974Z,3.67
2022-10-06T09:38:47.707Z,6.63
2022-10-06T09:39:51.269Z,3.90
2022-10-06T09:40:54.548Z,5.35
2022-10-06T09:41:56.528Z,3.85
2022-10-06T09:42:58.041Z,7.43
2022-10-06T09:44:05.077Z,3.53
2022-10-06T09:45:24.987Z,3.90
2022-10-06T09:46:41.863Z,3.35
2022-10-06T09:47:45.531Z,4.47
2022-10-06T09:48:47.328Z,6.95
2022-10-06T09:50:21.956Z,4.30
2022-10-06T09:51:24.747Z,5.13
2022-10-06T09:52:26.224Z,6.88
2022-10-06T09:53:27.753Z,5.03
2022-10-06T09:54:30.883Z,5.88
2022-10-06T09:55:34.713Z,4.97
2022-10-06T09:56:43.223Z,4.05
2022-10-06T09:57:50.177Z,5.32
2022-10-06T09:58:56.449Z,3.92
2022-10-06T10:00:00.391Z,3.67
2022-10-06T10:01:12.644Z,5.97
2022-10-06T10:02:30.480Z,4.22
2022-10-06T10:04:18.702Z,3.47
2022-10-06T10:05:21.244Z,5.35
2022-10-06T10:06:28.194Z,4.53
2022-10-06T10:07:31.344Z,4.40
2022-10-06T10:08:32.852Z,4.15
2022-10-06T10:09:34.401Z,3.75
2022-10-06T10:10:37.883Z,3.95
2022-10-06T10:11:58.155Z,4.10
2022-10-06T10:13:00.774Z,4.32
2022-10-06T10:14:02.203Z,4.20
2022-10-06T10:15:24.709Z,2.53
2022-10-06T10:16:28.600Z,3.92
2022-10-06T10:17:32.440Z,5.20
2022-10-06T10:18:35.480Z,3.65
2022-10-06T10:19:43.103Z,3.45
2022-10-06T10:20:56.046Z,4.07
2022-10-06T10:21:57.620Z,4.70
2022-10-06T10:23:02.749Z,4.25
2022-10-06T10:24:14.981Z,4.05
2022-10-06T10:25:16.360Z,4.18
2022-10-06T10:26:31.472Z,3.97
2022-10-06T10:29:04.517Z,3.67
2022-10-06T10:31:19.213Z,5.20
2022-10-06T10:32:40.257Z,3.20
2022-10-06T10:34:11.818Z,3.00
2022-10-06T10:35:37.268Z,3.78
2022-10-06T10:37:16.429Z,3.25
2022-10-06T10:38:23.224Z,5.35
2022-10-06T10:39:35.900Z,3.47
2022-10-06T10:41:04.706Z,3.28
2022-10-06T10:42:27.524Z,4.32
2022-10-06T10:43:33.779Z,3.67
2022-10-06T10:44:41.319Z,4.78
2022-10-06T10:45:50.908Z,3.83
2022-10-06T10:46:56.026Z,3.70
2022-10-06T10:47:59.917Z,5.35
2022-10-06T10:49:12.315Z,4.43
2022-10-06T10:50:28.232Z,3.50
2022-10-06T10:51:38.005Z,3.45
2022-10-06T10:52:42.852Z,4.22
2022-10-06T10:53:50.590Z,3.72
2022-10-06T10:55:01.034Z,5.47
2022-10-06T10:56:03.765Z,4.10
2022-10-06T10:57:14.136Z,4.38
2022-10-06T10:58:27.739Z,3.20
2022-10-06T10:59:52.077Z,3.88
2022-10-06T11:00:58.126Z,5.15
2022-10-06T11:02:05.017Z,3.65
2022-10-06T11:03:10.814Z,4.88
2022-10-06T11:04:13.851Z,5.15
2022-10-06T11:05:18.174Z,3.40
2022-10-06T11:06:38.506Z,4.82
2022-10-06T11:07:53.392Z,2.75
2022-10-06T11:09:09.219Z,3.15
2022-10-06T11:10:10.563Z,4.63
2022-10-06T11:11:25.116Z,3.20
2022-10-06T11:12:45.320Z,4.43
2022-10-06T11:13:54.175Z,4.60
2022-10-06T11:15:01.675Z,3.63
2022-10-06T11:16:43.294Z,4.25
2022-10-06T11:17:46.811Z,4.25
2022-10-06T11:19:08.584Z,3.85
2022-10-06T11:20:12.916Z,3.63
2022-10-06T11:21:24.326Z,4.80
2022-10-06T11:22:47.406Z,2.90
2022-10-06T11:24:15.568Z,5.25
2022-10-06T11:25:44.636Z,3.40
2022-10-06T11:26:55.513Z,4.75
2022-10-06T11:28:20.580Z,3.00
2022-10-06T11:29:34.349Z,2.92
2022-10-06T11:30:50.374Z,5.25
2022-10-06T11:32:10.613Z,2.67
2022-10-06T11:33:20.352Z,3.42
2022-10-06T11:34:21.807Z,5.07
2022-10-06T11:35:29.801Z,4.57
2022-10-06T11:36:47.046Z,5.88
2022-10-06T11:37:55.523Z,3.60
2022-10-06T11:39:06.835Z,4.22
2022-10-06T11:41:06.166Z,2.85
2022-10-06T11:43:46.529Z,4.13
2022-10-06T11:44:55.346Z,4.07
2022-10-06T11:46:31.793Z,3.30
2022-10-06T11:47:55.307Z,5.07
2022-10-06T11:49:36.923Z,3.70
2022-10-06T11:50:40.277Z,4.57
2022-10-06T11:51:42.053Z,3.85
2022-10-06T11:52:45.505Z,4.63
2022-10-06T11:53:47.461Z,3.67
2022-10-06T11:54:57.130Z,3.72
2022-10-06T11:56:34.993Z,4.50
2022-10-06T11:58:12.635Z,4.72
2022-10-06T11:59:25.829Z,3.28
2022-10-06T12:00:33.375Z,3.40
2022-10-06T12:01:35.334Z,2.08
2022-10-06T12:02:41.800Z,3.47
2022-10-06T12:04:10.499Z,4.22
2022-10-06T12:06:48.903Z,4.97
2022-10-06T12:07:56.213Z,3.95
2022-10-06T12:08:58.368Z,5.40
2022-10-06T12:10:28.496Z,2.95
2022-10-06T12:11:42.675Z,2.78
2022-10-06T12:13:01.803Z,3.60
2022-10-06T12:16:07.024Z,3.35
2022-10-06T12:18:04.343Z,3.72
2022-10-06T12:19:19.376Z,3.30
2022-10-06T12:21:32.895Z,3.47
2022-10-06T12:22:47.241Z,3.42
2022-10-06T12:24:01.138Z,8.27
2022-10-06T12:25:32.613Z,3.55
2022-10-06T12:26:50.353Z,3.00
2022-10-06T12:28:40.630Z,5.03
2022-10-06T12:29:48.949Z,3.65
2022-10-06T12:31:15.780Z,3.67
2022-10-06T12:32:46.390Z,3.70
2022-10-06T12:33:48.818Z,3.42
2022-10-06T12:35:09.744Z,5.80
2022-10-06T12:36:16.890Z,3.17
2022-10-06T12:37:43.195Z,2.95
2022-10-06T12:39:05.209Z,3.90
2022-10-06T12:40:47.294Z,5.15
2022-10-06T12:41:58.485Z,3.50
2022-10-06T12:43:18.114Z,2.83
2022-10-06T12:44:25.703Z,4.53
2022-10-06T12:45:27.130Z,2.75
2022-10-06T12:46:36.745Z,3.90
2022-10-06T12:47:43.438Z,4.43
2022-10-06T12:49:02.687Z,2.97
2022-10-06T12:50:27.102Z,3.50
2022-10-06T12:51:35.088Z,3.17
2022-10-06T12:52:46.115Z,4.57
2022-10-06T12:53:53.404Z,2.85
2022-10-06T12:55:07.368Z,3.25
2022-10-06T12:56:33.074Z,3.70
2022-10-06T12:57:52.073Z,3.50
2022-10-06T12:58:54.183Z,3.70
2022-10-06T12:59:55.595Z,3.17
2022-10-06T13:01:09.481Z,2.22
2022-10-06T13:02:21.917Z,2.70
2022-10-06T13:03:25.031Z,3.25
2022-10-06T13:04:36.768Z,4.15
2022-10-06T13:05:38.422Z,4.38
2022-10-06T13:06:49.592Z,2.75
2022-10-06T13:08:04.847Z,4.25
2022-10-06T13:09:14.285Z,3.55
2022-10-06T13:10:15.677Z,3.05
2022-10-06T13:11:25.276Z,4.40
2022-10-06T13:12:36.573Z,4.78
2022-10-06T13:13:45.343Z,3.30
2022-10-06T13:14:48.210Z,3.60
2022-10-06T13:16:52.573Z,3.65
2022-10-06T13:18:16.167Z,3.50
2022-10-06T13:19:28.207Z,4.72
2022-10-06T13:20:55.428Z,4.97
2022-10-06T13:21:57.799Z,5.22
2022-10-06T13:23:08.698Z,2.78
2022-10-06T13:24:20.527Z,3.42
2022-10-06T13:25:22.066Z,3.15
2022-10-06T13:26:28.583Z,4.18
2022-10-06T13:27:30.521Z,4.70
2022-10-06T13:28:43.672Z,4.70
2022-10-06T13:29:45.253Z,6.93
2022-10-06T13:30:58.454Z,3.35
2022-10-06T13:32:02.198Z,3.15
2022-10-06T13:33:03.688Z,5.40
2022-10-06T13:34:10.306Z,2.85
2022-10-06T13:35:12.620Z,3.38
2022-10-06T13:36:15.178Z,6.40
2022-10-06T13:37:16.797Z,4.78
2022-10-06T13:38:19.121Z,3.17
2022-10-06T13:39:22.976Z,3.22
2022-10-06T13:40:44.068Z,4.07
2022-10-06T13:41:54.342Z,2.47
2022-10-06T13:42:57.781Z,3.63
2022-10-06T13:44:05.916Z,3.28
2022-10-06T13:45:14.691Z,3.40
2022-10-06T13:46:21.043Z,3.35
2022-10-06T13:47:25.568Z,5.15
2022-10-06T13:48:28.446Z,4.28
2022-10-06T13:49:32.894Z,3.75
2022-10-06T13:50:36.329Z,4.30
2022-10-06T13:51:38.251Z,3.58
2022-10-06T13:52:48.585Z,3.22
2022-10-06T13:53:51.907Z,3.95
2022-10-06T13:54:56.425Z,4.95
2022-10-06T13:55:58.652Z,3.40
2022-10-06T13:57:00.198Z,2.72
2022-10-06T13:58:04.934Z,3.78
2022-10-06T13:59:31.000Z,3.05
2022-10-06T14:00:54.463Z,4.35
2022-10-06T14:01:58.701Z,5.40
2022-10-06T14:03:05.963Z,2.45
2022-10-06T14:04:18.378Z,3.75
2022-10-06T14:05:31.395Z,3.08
2022-10-06T14:06:33.198Z,4.00
2022-10-06T14:07:42.893Z,3.33
2022-10-06T14:08:54.153Z,2.15
2022-10-06T14:09:55.638Z,3.88
2022-10-06T14:11:03.139Z,3.83
2022-10-06T14:12:15.642Z,3.03
2022-10-06T14:13:24.507Z,4.82
2022-10-06T14:15:31.258Z,4.05
2022-10-06T14:16:33.057Z,3.40
2022-10-06T14:17:34.560Z,3.10
2022-10-06T14:18:43.152Z,2.67
2022-10-06T14:19:45.371Z,1.98
2022-10-06T14:20:49.101Z,3.10
2022-10-06T14:21:51.729Z,3.70
2022-10-06T14:22:53.231Z,3.33
2022-10-06T14:23:55.937Z,4.13
2022-10-06T14:24:57.348Z,5.93
2022-10-06T14:25:59.336Z,5.75
2022-10-06T14:27:03.127Z,4.88
2022-10-06T14:28:04.610Z,5.35
2022-10-06T14:29:06.193Z,6.82
2022-10-06T14:30:08.343Z,9.93
2022-10-06T14:31:14.249Z,8.35
2022-10-06T14:32:18.237Z,5.13
2022-10-06T14:33:19.797Z,4.72
2022-10-06T14:34:22.133Z,4.63
2022-10-06T14:35:23.564Z,5.97
2022-10-06T14:36:26.036Z,3.22
2022-10-06T14:37:27.476Z,3.10
2022-10-06T14:38:29.645Z,3.72
2022-10-06T14:39:31.160Z,4.65
2022-10-06T14:40:32.609Z,3.88
2022-10-06T14:41:34.796Z,3.50
2022-10-06T14:42:36.353Z,2.85
2022-10-06T14:43:40.020Z,2.50
2022-10-06T14:44:43.208Z,4.18
2022-10-06T14:45:46.686Z,3.33
2022-10-06T14:46:49.257Z,2.28
2022-10-06T14:47:50.812Z,2.55
2022-10-06T14:48:52.369Z,2.97
2022-10-06T14:49:53.833Z,3.10
2022-10-06T14:50:56.333Z,2.85
2022-10-06T14:51:58.234Z,2.85
2022-10-06T14:52:59.998Z,4.45
2022-10-06T14:54:01.600Z,4.22
2022-10-06T14:55:03.117Z,3.35
2022-10-06T14:56:07.387Z,4.15
2022-10-06T14:57:10.024Z,3.35